Flight Track Log - Related Links

Times and Time Zones

All times are in EST time to prevent confusion due to time zone crossing. See the UCA3598 flight status page for this flight to view local times or setup timezone preferences in your user account.

Time Position Orientation Groundspeed Altitude Reporting Facility
EST Latitude Longitude Course Direction KTS MPH feet Rate Location/Type
Thu 10:25:57 PM 38.9500 -77.5000 North 125 144 1,500  Level Potomac TRACON
Thu 10:26:57 PM 38.9833 -77.5333 322° Northwest 176 203 2,600 1,250 Climbing Potomac TRACON
Thu 10:27:57 PM 39.0333 -77.5500 345° North 207 238 4,000 1,439 Climbing Potomac TRACON
Thu 10:30:13 PM 39.1542 -77.5347 North 205 236 7,300 1,423 Climbing Washington Center
Thu 10:31:00 PM 39.3585 -77.2815 North  Level Estimated
Thu 10:31:11 PM 39.2083 -77.5256 North 198 228 8,600  Level Washington Center
Thu 10:32:12 PM 39.2503 -77.5214 North 198 228 9,500 1,180 Climbing Washington Center
Thu 10:33:13 PM 39.3214 -77.5069 North 204 235 11,000 1,438 Climbing Washington Center
Thu 10:34:13 PM 39.3797 -77.4978 North 209 241 12,400 1,300 Climbing Washington Center
Thu 10:35:13 PM 39.4361 -77.4886 North 209 241 13,600 1,271 Climbing Washington Center
Thu 10:36:11 PM 39.4989 -77.4794 North 209 241 14,900 1,261 Climbing Washington Center
Thu 10:37:12 PM 39.5553 -77.4703 North 209 241 16,100 595 Climbing Washington Center
Thu 10:38:12 PM 39.6222 -77.4611 North 223 257 16,100 -47 Level Washington Center
Thu 10:39:21 PM 39.7136 -77.4536 North 269 310 16,000 419 Descending New York Center
Thu 10:40:21 PM 39.7867 -77.4522 North 285 328 17,000 500 Climbing New York Center
Thu 10:41:21 PM 39.8617 -77.4514 360° North 273 314 17,000  Level New York Center
Thu 10:42:21 PM 39.9411 -77.4508 360° North 273 314 17,000  Level New York Center
Thu 10:43:21 PM 40.0194 -77.4283 12° North 278 320 17,000  Level New York Center
Thu 10:44:21 PM 40.0928 -77.3839 25° Northeast 285 328 17,000  Level New York Center
Thu 10:45:21 PM 40.1661 -77.3392 25° Northeast 290 334 17,000  Level New York Center
Thu 10:46:21 PM 40.2400 -77.2892 27° Northeast 290 334 17,000  Level New York Center
Thu 10:47:21 PM 40.3111 -77.2442 26° Northeast 290 334 17,000  Level New York Center
Thu 10:48:21 PM 40.3867 -77.1967 26° Northeast 290 334 17,000  Level New York Center
Thu 10:49:21 PM 40.4581 -77.1486 27° Northeast 290 334 17,000  Level New York Center
Thu 10:50:21 PM 40.5314 -77.1036 25° Northeast 290 334 17,000  Level New York Center
Thu 10:51:21 PM 40.6069 -77.0558 26° Northeast 291 335 17,000  Level New York Center
Thu 10:52:21 PM 40.6783 -77.0075 27° Northeast 291 335 17,000  Level New York Center
Thu 10:53:21 PM 40.7517 -76.9594 26° Northeast 291 335 17,000  Level New York Center
Thu 10:54:21 PM 40.8228 -76.9139 26° Northeast 291 335 17,000  Level New York Center
Thu 10:55:21 PM 40.8964 -76.8628 28° Northeast 294 338 17,000 -250 Level New York Center
Thu 10:56:21 PM 40.9675 -76.8169 26° Northeast 288 331 16,500 -750 Descending New York Center
Thu 10:57:21 PM 41.0450 -76.7661 26° Northeast 293 337 15,500 -900 Descending New York Center
Thu 10:58:21 PM 41.1056 -76.7244 27° Northeast 298 343 14,700 -900 Descending New York Center
Thu 10:59:21 PM 41.1917 -76.6686 26° Northeast 298 343 13,700 -850 Descending New York Center
Thu 11:00:21 PM 41.2714 -76.6122 28° Northeast 303 349 13,000 -350 Descending New York Center
Thu 11:01:21 PM 41.3425 -76.5658 26° Northeast 293 337 13,000  Level New York Center
Thu 11:02:21 PM 41.4136 -76.5194 26° Northeast 281 323 13,000  Level New York Center
Thu 11:03:21 PM 41.4736 -76.4803 26° Northeast 276 318 13,000  Level New York Center
Thu 11:04:21 PM 41.5425 -76.4333 27° Northeast 276 318 13,000 -350 Level New York Center
Thu 11:05:21 PM 41.6222 -76.3819 26° Northeast 276 318 12,300 -900 Descending New York Center
Thu 11:06:21 PM 41.6953 -76.3297 28° Northeast 292 336 11,200 -1,100 Descending New York Center
Thu 11:07:21 PM 41.7686 -76.2800 27° Northeast 297 342 10,100 -1,050 Descending New York Center
Thu 11:08:21 PM 41.8328 -76.2381 26° Northeast 292 336 9,100 -1,050 Descending New York Center
Thu 11:09:21 PM 41.9039 -76.1883 27° Northeast 292 336 8,000 -1,150 Descending New York Center
Thu 11:10:21 PM 41.9789 -76.1386 26° Northeast 281 323 6,800 -1,150 Descending New York Center
Thu 11:11:21 PM 42.0436 -76.0936 27° Northeast 269 310 5,700 -1,200 Descending New York Center
Thu 11:12:21 PM 42.1014 -76.0536 27° Northeast 264 304 4,400 -1,050 Descending New York Center
Thu 11:13:21 PM 42.1456 -76.0011 41° Northeast 242 278 3,600 -1,000 Descending New York Center
Thu 11:14:21 PM 42.1642 -75.9522 63° Northeast 184 212 2,400 -800 Descending New York Center
Thu 11:15:21 PM 42.2000 -75.9467 North 175 201 2,000 3,300 Descending New York Center
Thu 11:16:21 PM 42.2325 -75.9156 35° Northeast 175 201 9,000 3,500 Climbing New York Center
Thu 11:17:21 PM 42.2650 -75.8817 38° Northeast 175 201 9,000  Level New York Center
Thu 11:18:21 PM 42.2978 -75.8506 35° Northeast 175 201 9,000  Level New York Center
Thu 11:19:21 PM 42.3172 -75.8297 38° Northeast 175 201 9,000  Level New York Center
Thu 11:21:00 PM 42.2304 -75.9312 221° Southwest  Level FlightAware Approximate
Thu 11:28:00 PM 42.2000 -75.9667 North  Level FlightAware Approximate
Thu 11:29:00 PM 42.2084 -75.9796 North  Level Estimated
Thu 11:30:00 PM 42.2084 -75.9796 North  Level Estimated
Thu 11:31:00 PM 42.2084 -75.9796 North  Level Estimated
Thu 11:32:00 PM 42.2084 -75.9796 North  Level Estimated
Thu 11:33:00 PM 42.2084 -75.9796 North  Level Estimated
Thu 11:34:00 PM 42.2084 -75.9796 North  Level Estimated
Thu 11:35:00 PM 42.2084 -75.9796 North  Level Estimated
Thu 11:36:00 PM 42.2084 -75.9796 North  Level Estimated

Login

Don't have an account? Register now (free) for customized features, flight alerts, and more!